Portada
METAR-TAF:

METAR-TAF

Aeropuertos :

Wadi ad-Dawasir, Arabia Saudita

latitud: 20-30N, longitud: 045-12E, altitud: 624 m

Observación

El informe se hizo hace 52 minutos, a las 00:00 UTC
Viento 10 kt del este-noreste
Temperatura 12°C
Humedad 67%
Presión 1017 hPa
Visibilidad 10 km o más
sin nubes por debajo de 1500 m y sin presencia de cumulonimbus.

METAR: OEWD 200000Z 07010KT CAVOK 12/06 Q1017 NOSIG

Hora: 03:52 (00:52 UTC)

Pronóstico

El informe se hizo hace 1 hora y 52 minutos, a las 23:00 UTC
Pronóstico válido del 20 a las 00 UTC al 21 a las 06 UTC
Viento 8 kt del este
Visibilidad: 7000 m
Evolucionando progresivamente
del 20 a las 08 UTC al 20 a las 10 UTC
Viento 15 kt del sureste
Temporalmente
del 20 a las 10 UTC al 20 a las 16 UTC
Visibilidad: 4000 m
Ventisca alta de polvo

TAF: OEWD 192300Z 2000/2106 09008KT 7000 NSC BECMG 2008/2010 14015KT TEMPO 2010/2016 4000 BLDU

Observaciones y pronósticos meteorológicos de más de 4000 aeropuertos (mensajes METAR y TAF).

Los puntos amarillos y rojos representan las estaciones disponibles.

Ponga el ratón en el punto deseado para ver el nombre de la estación.

Haga clic para ver las observaciones y los pronósticos meteorológicos.

Para cambiar el mapa : haga clic en los botones verdes con una cruz de color negro para hacer un zoom, en el botón verde con un guión para alejar o en las flechas verdes para mapas adyacentes.


METAR-TAF: